createdAt,value
2022-11-23T00:00:29.389Z,948.58
2022-11-23T00:01:29.334Z,948.59
2022-11-23T00:03:29.374Z,948.57
2022-11-23T00:04:29.396Z,948.55
2022-11-23T00:05:29.415Z,948.56
2022-11-23T00:06:29.325Z,948.58
2022-11-23T00:07:29.463Z,948.59
2022-11-23T00:08:29.492Z,948.56
2022-11-23T00:09:29.570Z,948.58
2022-11-23T00:10:29.305Z,948.57
2022-11-23T00:12:29.422Z,948.56
2022-11-23T00:13:29.510Z,948.57
2022-11-23T00:14:29.494Z,948.58
2022-11-23T00:15:29.361Z,948.62
2022-11-23T00:16:29.319Z,948.58
2022-11-23T00:18:29.336Z,948.6
2022-11-23T00:19:29.558Z,948.57
2022-11-23T00:21:29.416Z,948.58
2022-11-23T00:22:29.392Z,948.52
2022-11-23T00:23:29.304Z,948.57
2022-11-23T00:24:29.498Z,948.55
2022-11-23T00:25:29.521Z,948.52
2022-11-23T00:26:29.536Z,948.49
2022-11-23T00:27:29.294Z,948.48
2022-11-23T00:28:29.532Z,948.45
2022-11-23T00:29:29.631Z,948.44
2022-11-23T00:30:29.383Z,948.47
2022-11-23T00:31:29.480Z,948.39
2022-11-23T00:32:29.443Z,948.42
2022-11-23T00:35:29.341Z,948.4
2022-11-23T00:36:29.529Z,948.46
2022-11-23T00:38:29.407Z,948.49
2022-11-23T00:39:29.803Z,948.5
2022-11-23T00:42:32.568Z,948.52
2022-11-23T00:45:29.445Z,948.56
2022-11-23T00:46:29.531Z,948.54
2022-11-23T00:47:29.421Z,948.52
2022-11-23T00:48:29.458Z,948.53
2022-11-23T00:49:29.648Z,948.56
2022-11-23T00:50:29.502Z,948.6
2022-11-23T00:51:29.541Z,948.57
2022-11-23T00:52:29.534Z,948.55
2022-11-23T00:53:29.411Z,948.6
2022-11-23T00:54:29.596Z,948.55
2022-11-23T00:55:29.510Z,948.56
2022-11-23T00:56:29.405Z,948.55
2022-11-23T00:57:29.329Z,948.58
2022-11-23T00:58:29.474Z,948.57
2022-11-23T00:59:29.808Z,948.58
2022-11-23T01:00:29.417Z,948.55
2022-11-23T01:01:29.421Z,948.53
2022-11-23T01:02:29.460Z,948.57
2022-11-23T01:03:29.659Z,948.54
2022-11-23T01:04:29.425Z,948.53
2022-11-23T01:05:29.521Z,948.56
2022-11-23T01:06:29.427Z,948.51
2022-11-23T01:07:29.535Z,948.52
2022-11-23T01:08:29.465Z,948.49
2022-11-23T01:09:29.893Z,948.51
2022-11-23T01:11:29.547Z,948.49
2022-11-23T01:12:29.531Z,948.5
2022-11-23T01:13:29.475Z,948.52
2022-11-23T01:14:29.540Z,948.5
2022-11-23T01:15:29.560Z,948.54
2022-11-23T01:16:29.573Z,948.56
2022-11-23T01:17:30.452Z,948.58
2022-11-23T01:18:29.468Z,948.57
2022-11-23T01:21:29.516Z,948.59
2022-11-23T01:22:29.583Z,948.61
2022-11-23T01:26:29.672Z,948.59
2022-11-23T01:27:29.562Z,948.6
2022-11-23T01:28:29.523Z,948.58
2022-11-23T01:29:29.572Z,948.57
2022-11-23T01:30:29.615Z,948.53
2022-11-23T01:32:29.492Z,948.55
2022-11-23T01:33:29.618Z,948.53
2022-11-23T01:35:30.581Z,948.51
2022-11-23T01:36:29.701Z,948.53
2022-11-23T01:37:29.609Z,948.49
2022-11-23T01:38:29.704Z,948.53
2022-11-23T01:39:29.868Z,948.52
2022-11-23T01:40:29.600Z,948.5
2022-11-23T01:41:29.461Z,948.49
2022-11-23T01:42:29.632Z,948.54
2022-11-23T01:43:29.643Z,948.56
2022-11-23T01:44:29.664Z,948.53
2022-11-23T01:45:29.577Z,948.55
2022-11-23T01:46:29.665Z,948.52
2022-11-23T01:47:29.656Z,948.51
2022-11-23T01:48:29.555Z,948.52
2022-11-23T01:49:30.043Z,948.53
2022-11-23T01:50:29.510Z,948.52
2022-11-23T01:52:29.571Z,948.51
2022-11-23T01:53:29.604Z,948.48
2022-11-23T01:54:29.556Z,948.44
2022-11-23T01:55:29.588Z,948.47
2022-11-23T01:56:29.634Z,948.53
2022-11-23T01:57:29.646Z,948.47
2022-11-23T01:58:29.713Z,948.45
2022-11-23T01:59:29.857Z,948.47
2022-11-23T02:00:29.601Z,948.4
2022-11-23T02:01:29.767Z,948.59
2022-11-23T02:02:29.555Z,948.53
2022-11-23T02:03:29.592Z,948.49
2022-11-23T02:04:29.808Z,948.63
2022-11-23T02:05:29.680Z,948.61
2022-11-23T02:06:29.617Z,948.64
2022-11-23T02:07:29.698Z,948.66
2022-11-23T02:08:29.568Z,948.65
2022-11-23T02:09:29.842Z,948.63
2022-11-23T02:11:29.607Z,948.64
2022-11-23T02:12:29.535Z,948.63
2022-11-23T02:13:29.541Z,948.57
2022-11-23T02:14:29.557Z,948.59
2022-11-23T02:15:29.547Z,948.61
2022-11-23T02:16:29.533Z,948.58
2022-11-23T02:17:29.759Z,948.57
2022-11-23T02:18:29.698Z,948.55
2022-11-23T02:20:29.733Z,948.56
2022-11-23T02:22:29.647Z,948.54
2022-11-23T02:23:29.698Z,948.56
2022-11-23T02:24:29.672Z,948.55
2022-11-23T02:25:29.561Z,948.56
2022-11-23T02:26:29.584Z,948.57
2022-11-23T02:27:29.564Z,948.58
2022-11-23T02:28:29.665Z,948.54
2022-11-23T02:30:29.619Z,948.57
2022-11-23T02:31:29.581Z,948.56
2022-11-23T02:32:29.591Z,948.65
2022-11-23T02:33:29.626Z,948.67
2022-11-23T02:34:29.714Z,948.63
2022-11-23T02:35:29.604Z,948.7
2022-11-23T02:36:29.686Z,948.63
2022-11-23T02:38:29.723Z,948.65
2022-11-23T02:39:30.988Z,948.64
2022-11-23T02:40:29.727Z,948.68
2022-11-23T02:41:29.710Z,948.63
2022-11-23T02:44:29.704Z,948.67
2022-11-23T02:45:29.663Z,948.66
2022-11-23T02:47:29.787Z,948.64
2022-11-23T02:48:33.889Z,948.63
2022-11-23T02:49:30.069Z,948.64
2022-11-23T02:50:29.730Z,948.63
2022-11-23T02:51:29.905Z,948.64
2022-11-23T02:52:29.741Z,948.58
2022-11-23T02:55:29.663Z,948.6
2022-11-23T02:56:29.789Z,948.59
2022-11-23T02:57:29.765Z,948.6
2022-11-23T02:58:29.743Z,948.62
2022-11-23T03:00:29.806Z,948.64
2022-11-23T03:02:29.819Z,948.61
2022-11-23T03:03:29.770Z,948.64
2022-11-23T03:04:29.758Z,948.67
2022-11-23T03:05:29.671Z,948.68
2022-11-23T03:07:29.812Z,948.69
2022-11-23T03:08:29.790Z,948.68
2022-11-23T03:09:29.857Z,948.69
2022-11-23T03:12:29.860Z,948.67
2022-11-23T03:13:29.814Z,948.66
2022-11-23T03:14:29.812Z,948.62
2022-11-23T03:15:29.725Z,948.65
2022-11-23T03:16:29.771Z,948.64
2022-11-23T03:17:29.650Z,948.62
2022-11-23T03:18:29.847Z,948.65
2022-11-23T03:19:30.087Z,948.62
2022-11-23T03:20:29.698Z,948.58
2022-11-23T03:21:29.839Z,948.59
2022-11-23T03:22:29.820Z,948.6
2022-11-23T03:23:29.779Z,948.61
2022-11-23T03:24:29.764Z,948.58
2022-11-23T03:25:29.743Z,948.61
2022-11-23T03:26:29.813Z,948.59
2022-11-23T03:27:29.759Z,948.6
2022-11-23T03:28:29.821Z,948.57
2022-11-23T03:30:29.830Z,948.53
2022-11-23T03:31:29.812Z,948.55
2022-11-23T03:32:29.810Z,948.57
2022-11-23T03:33:29.906Z,948.52
2022-11-23T03:34:29.859Z,948.55
2022-11-23T03:35:29.744Z,948.54
2022-11-23T03:36:29.869Z,948.49
2022-11-23T03:39:30.006Z,948.46
2022-11-23T03:40:29.795Z,948.49
2022-11-23T03:41:29.745Z,948.44
2022-11-23T03:42:29.800Z,948.43
2022-11-23T03:43:29.715Z,948.42
2022-11-23T03:44:29.717Z,948.41
2022-11-23T03:45:29.792Z,948.38
2022-11-23T03:46:29.760Z,948.37
2022-11-23T03:47:29.821Z,948.36
2022-11-23T03:48:29.726Z,948.31
2022-11-23T03:49:29.996Z,948.29
2022-11-23T03:53:29.841Z,948.28
2022-11-23T03:54:29.894Z,948.27
2022-11-23T03:55:29.777Z,948.26
2022-11-23T03:57:29.848Z,948.28
2022-11-23T03:58:29.784Z,948.27
2022-11-23T03:59:30.255Z,948.28
2022-11-23T04:00:29.858Z,948.26
2022-11-23T04:01:31.278Z,948.25
2022-11-23T04:02:29.841Z,948.27
2022-11-23T04:03:29.895Z,948.24
2022-11-23T04:04:29.861Z,948.25
2022-11-23T04:05:29.807Z,948.24
2022-11-23T04:06:29.846Z,948.22
2022-11-23T04:07:31.345Z,948.23
2022-11-23T04:08:29.917Z,948.21
2022-11-23T04:09:30.271Z,948.19
2022-11-23T04:10:29.826Z,948.2
2022-11-23T04:11:29.791Z,948.23
2022-11-23T04:13:29.957Z,948.24
2022-11-23T04:14:29.835Z,948.23
2022-11-23T04:15:29.825Z,948.22
2022-11-23T04:16:29.822Z,948.24
2022-11-23T04:17:29.868Z,948.25
2022-11-23T04:18:29.833Z,948.28
2022-11-23T04:20:29.851Z,948.24
2022-11-23T04:21:29.989Z,948.21
2022-11-23T04:22:29.838Z,948.18
2022-11-23T04:23:29.905Z,948.19
2022-11-23T04:25:29.888Z,948.17
2022-11-23T04:26:29.884Z,948.18
2022-11-23T04:28:29.905Z,948.14
2022-11-23T04:30:30.864Z,948.09
2022-11-23T04:31:29.890Z,948.06
2022-11-23T04:33:29.903Z,948.04
2022-11-23T04:34:29.832Z,948.02
2022-11-23T04:35:29.883Z,948.01
2022-11-23T04:36:30.878Z,947.99
2022-11-23T04:37:29.928Z,947.97
2022-11-23T04:38:29.941Z,948
2022-11-23T04:41:30.964Z,947.96
2022-11-23T04:43:29.936Z,947.99
2022-11-23T04:44:29.937Z,947.96
2022-11-23T04:45:30.008Z,947.97
2022-11-23T04:46:29.897Z,947.94
2022-11-23T04:47:30.931Z,947.95
2022-11-23T04:48:29.943Z,947.94
2022-11-23T04:49:30.192Z,947.91
2022-11-23T04:50:30.988Z,947.88
2022-11-23T04:51:29.901Z,947.84
2022-11-23T04:52:29.943Z,947.83
2022-11-23T04:54:30.033Z,947.8
2022-11-23T04:55:29.923Z,947.77
2022-11-23T04:56:29.982Z,947.73
2022-11-23T04:57:30.043Z,947.74
2022-11-23T04:58:33.125Z,947.75
2022-11-23T04:59:30.457Z,947.76
2022-11-23T05:00:29.939Z,947.77
2022-11-23T05:01:30.075Z,947.79
2022-11-23T05:02:29.992Z,947.81
2022-11-23T05:03:29.935Z,947.83
2022-11-23T05:08:30.020Z,947.79
2022-11-23T05:09:30.169Z,947.83
2022-11-23T05:10:30.061Z,947.8
2022-11-23T05:11:29.992Z,947.85
2022-11-23T05:12:30.012Z,947.91
2022-11-23T05:13:30.083Z,947.86
2022-11-23T05:14:29.976Z,947.88
2022-11-23T05:16:29.970Z,947.92
2022-11-23T05:17:30.097Z,947.89
2022-11-23T05:18:29.945Z,947.9
2022-11-23T05:21:30.027Z,947.84
2022-11-23T05:22:29.953Z,947.87
2022-11-23T05:24:29.967Z,947.84
2022-11-23T05:25:29.973Z,947.83
2022-11-23T05:26:29.992Z,947.81
2022-11-23T05:27:30.139Z,947.8
2022-11-23T05:28:39.912Z,947.78
2022-11-23T05:29:30.277Z,947.81
2022-11-23T05:30:30.185Z,947.77
2022-11-23T05:31:30.015Z,947.76
2022-11-23T05:32:29.960Z,947.8
2022-11-23T05:33:30.067Z,947.76
2022-11-23T05:34:30.025Z,947.74
2022-11-23T05:35:30.107Z,947.79
2022-11-23T05:36:30.027Z,947.78
2022-11-23T05:37:30.058Z,947.74
2022-11-23T05:38:30.178Z,947.79
2022-11-23T05:39:30.395Z,947.82
2022-11-23T05:40:30.015Z,947.8
2022-11-23T05:41:30.102Z,947.82
2022-11-23T05:43:30.076Z,947.81
2022-11-23T05:45:30.189Z,947.82
2022-11-23T05:46:31.243Z,947.81
2022-11-23T05:48:30.103Z,947.77
2022-11-23T05:49:30.518Z,947.85
2022-11-23T05:50:30.131Z,947.81
2022-11-23T05:51:30.118Z,947.87
2022-11-23T05:52:30.125Z,947.86
2022-11-23T05:53:30.173Z,947.82
2022-11-23T05:54:30.177Z,947.85
2022-11-23T05:55:30.163Z,947.89
2022-11-23T05:56:30.126Z,947.91
2022-11-23T05:57:30.093Z,947.88
2022-11-23T05:58:30.210Z,947.87
2022-11-23T05:59:30.514Z,947.88
2022-11-23T06:01:30.122Z,947.84
2022-11-23T06:02:30.084Z,947.88
2022-11-23T06:03:30.228Z,947.87
2022-11-23T06:04:30.072Z,947.86
2022-11-23T06:06:30.100Z,947.84
2022-11-23T06:07:30.271Z,947.83
2022-11-23T06:08:30.161Z,947.82
2022-11-23T06:09:30.723Z,947.86
2022-11-23T06:10:30.077Z,947.84
2022-11-23T06:11:30.064Z,947.86
2022-11-23T06:13:30.154Z,947.9
2022-11-23T06:15:30.117Z,947.89
2022-11-23T06:16:30.124Z,947.88
2022-11-23T06:17:30.130Z,947.87
2022-11-23T06:18:30.140Z,947.88
2022-11-23T06:19:30.432Z,947.89
2022-11-23T06:20:31.393Z,947.87
2022-11-23T06:21:30.218Z,947.86
2022-11-23T06:22:30.134Z,947.87
2022-11-23T06:23:30.326Z,947.85
2022-11-23T06:24:30.248Z,947.86
2022-11-23T06:25:30.205Z,947.88
2022-11-23T06:26:30.128Z,947.9
2022-11-23T06:27:30.159Z,947.93
2022-11-23T06:28:30.161Z,947.87
2022-11-23T06:29:30.560Z,947.89
2022-11-23T06:30:30.263Z,947.93
2022-11-23T06:31:30.395Z,947.91
2022-11-23T06:32:30.145Z,947.93
2022-11-23T06:33:30.234Z,947.91
2022-11-23T06:34:30.288Z,947.94
2022-11-23T06:35:31.644Z,947.92
2022-11-23T06:36:30.156Z,947.9
2022-11-23T06:37:30.245Z,947.95
2022-11-23T06:39:30.356Z,947.97
2022-11-23T06:40:30.249Z,947.93
2022-11-23T06:41:32.491Z,947.96
2022-11-23T06:42:38.692Z,948
2022-11-23T06:43:30.388Z,948.02
2022-11-23T06:44:30.197Z,948.04
2022-11-23T06:45:30.187Z,948
2022-11-23T06:46:30.293Z,948.02
2022-11-23T06:47:30.157Z,948.04
2022-11-23T06:48:30.307Z,948.08
2022-11-23T06:49:30.390Z,948.1
2022-11-23T06:51:30.214Z,948.08
2022-11-23T06:52:30.162Z,948.13
2022-11-23T06:53:30.170Z,948.1
2022-11-23T06:54:30.363Z,948.14
2022-11-23T06:55:30.375Z,948.15
2022-11-23T06:57:30.213Z,948.18
2022-11-23T07:00:30.378Z,948.19
2022-11-23T07:01:30.308Z,948.21
2022-11-23T07:02:30.316Z,948.24
2022-11-23T07:03:30.302Z,948.22
2022-11-23T07:04:30.317Z,948.27
2022-11-23T07:06:30.255Z,948.25
2022-11-23T07:07:30.212Z,948.32
2022-11-23T07:08:30.315Z,948.29
2022-11-23T07:10:30.231Z,948.33
2022-11-23T07:11:30.399Z,948.34
2022-11-23T07:13:30.287Z,948.37
2022-11-23T07:14:30.378Z,948.35
2022-11-23T07:15:30.324Z,948.36
2022-11-23T07:16:30.206Z,948.38
2022-11-23T07:17:30.427Z,948.4
2022-11-23T07:18:30.413Z,948.39
2022-11-23T07:19:31.962Z,948.44
2022-11-23T07:20:30.264Z,948.42
2022-11-23T07:21:30.275Z,948.47
2022-11-23T07:23:30.424Z,948.48
2022-11-23T07:24:34.553Z,948.42
2022-11-23T07:25:30.268Z,948.47
2022-11-23T07:26:30.441Z,948.5
2022-11-23T07:27:30.235Z,948.46
2022-11-23T07:28:30.331Z,948.52
2022-11-23T07:29:30.541Z,948.51
2022-11-23T07:30:30.438Z,948.52
2022-11-23T07:31:30.279Z,948.53
2022-11-23T07:33:30.346Z,948.51
2022-11-23T07:34:30.321Z,948.55
2022-11-23T07:36:30.333Z,948.53
2022-11-23T07:38:30.392Z,948.61
2022-11-23T07:39:49.142Z,948.81
2022-11-23T07:40:30.452Z,949.14
2022-11-23T07:41:30.372Z,949.44
2022-11-23T07:42:35.987Z,949.46
2022-11-23T07:43:30.372Z,949.54
2022-11-23T07:44:30.287Z,949.55
2022-11-23T07:45:31.354Z,949.52
2022-11-23T07:46:30.593Z,949.5
2022-11-23T07:47:30.418Z,949.46
2022-11-23T07:48:34.838Z,949.44
2022-11-23T07:49:30.870Z,949.39
2022-11-23T07:50:30.380Z,949.35
2022-11-23T07:51:30.383Z,949.3
2022-11-23T07:52:30.423Z,949.26
2022-11-23T07:53:30.408Z,949.22
2022-11-23T07:54:30.451Z,949.16
2022-11-23T07:55:30.360Z,949.13
2022-11-23T07:56:30.446Z,949.01
2022-11-23T07:57:31.422Z,948.92
2022-11-23T07:58:30.525Z,948.78
2022-11-23T07:59:30.810Z,948.77
2022-11-23T08:00:30.347Z,948.72
2022-11-23T08:01:30.414Z,948.7
2022-11-23T08:02:30.572Z,948.66
2022-11-23T08:03:30.844Z,948.59
2022-11-23T08:06:30.394Z,948.6
2022-11-23T08:07:30.607Z,948.52
2022-11-23T08:09:30.416Z,948.44
2022-11-23T08:10:30.481Z,948.49
2022-11-23T08:11:30.386Z,948.46
2022-11-23T08:12:30.492Z,948.39
2022-11-23T08:13:30.428Z,948.41
2022-11-23T08:14:30.919Z,948.45
2022-11-23T08:15:30.430Z,948.43
2022-11-23T08:16:30.602Z,948.42
2022-11-23T08:17:30.448Z,948.4
2022-11-23T08:19:30.496Z,948.38
2022-11-23T08:20:30.575Z,948.34
2022-11-23T08:21:30.488Z,948.37
2022-11-23T08:22:30.576Z,948.38
2022-11-23T08:24:30.873Z,948.39
2022-11-23T08:25:30.475Z,948.36
2022-11-23T08:26:30.503Z,948.33
2022-11-23T08:28:30.618Z,948.34
2022-11-23T08:29:30.590Z,948.3
2022-11-23T08:30:30.542Z,948.27
2022-11-23T08:31:30.472Z,948.28
2022-11-23T08:33:30.605Z,948.21
2022-11-23T08:37:30.468Z,948.25
2022-11-23T08:38:30.538Z,948.24
2022-11-23T08:39:30.543Z,948.27
2022-11-23T08:40:30.490Z,948.23
2022-11-23T08:41:30.442Z,948.22
2022-11-23T08:43:31.693Z,948.17
2022-11-23T08:44:30.906Z,948.2
2022-11-23T08:46:30.548Z,948.17
2022-11-23T08:47:30.564Z,948.18
2022-11-23T08:48:30.552Z,948.21
2022-11-23T08:49:30.512Z,948.22
2022-11-23T08:50:30.623Z,948.19
2022-11-23T08:51:30.524Z,948.16
2022-11-23T08:52:30.632Z,948.23
2022-11-23T08:54:30.740Z,948.22
2022-11-23T08:55:30.527Z,948.2
2022-11-23T08:56:30.533Z,948.24
2022-11-23T08:57:30.576Z,948.18
2022-11-23T08:59:30.595Z,948.21
2022-11-23T09:02:30.623Z,948.31
2022-11-23T09:03:30.574Z,948.32
2022-11-23T09:04:30.601Z,948.28
2022-11-23T09:05:30.638Z,948.26
2022-11-23T09:06:30.546Z,948.29
2022-11-23T09:09:30.604Z,948.26
2022-11-23T09:12:30.685Z,948.24
2022-11-23T09:14:31.025Z,948.36
2022-11-23T09:15:30.567Z,948.35
2022-11-23T09:17:30.631Z,948.33
2022-11-23T09:18:30.731Z,948.36
2022-11-23T09:19:30.689Z,948.33
2022-11-23T09:20:30.537Z,948.34
2022-11-23T09:21:30.547Z,948.35
2022-11-23T09:22:30.691Z,948.37
2022-11-23T09:23:30.663Z,948.35
2022-11-23T09:24:30.912Z,948.34
2022-11-23T09:26:30.750Z,948.39
2022-11-23T09:27:30.672Z,948.35
2022-11-23T09:29:30.878Z,948.4
2022-11-23T09:30:30.551Z,948.38
2022-11-23T09:31:30.724Z,948.4
2022-11-23T09:32:30.603Z,948.42
2022-11-23T09:34:30.990Z,948.4
2022-11-23T09:35:30.777Z,948.42
2022-11-23T09:36:30.615Z,948.41
2022-11-23T09:37:30.722Z,948.4
2022-11-23T09:40:30.623Z,948.41
2022-11-23T09:41:30.726Z,948.42
2022-11-23T09:42:30.778Z,948.45
2022-11-23T09:43:30.633Z,948.43
2022-11-23T09:44:31.004Z,948.45
2022-11-23T09:45:30.726Z,948.43
2022-11-23T09:46:34.252Z,948.44
2022-11-23T09:47:30.851Z,948.47
2022-11-23T09:48:30.623Z,948.45
2022-11-23T09:49:30.767Z,948.48
2022-11-23T09:50:30.609Z,948.45
2022-11-23T09:52:30.719Z,948.47
2022-11-23T09:53:30.662Z,948.49
2022-11-23T09:54:30.869Z,948.51
2022-11-23T09:55:30.736Z,948.52
2022-11-23T09:56:30.659Z,948.55
2022-11-23T09:57:30.684Z,948.52
2022-11-23T09:58:30.636Z,948.49
2022-11-23T09:59:30.708Z,948.47
2022-11-23T10:00:30.680Z,948.49
2022-11-23T10:01:30.736Z,948.5
2022-11-23T10:02:30.666Z,948.48
2022-11-23T10:03:30.815Z,948.45
2022-11-23T10:04:30.784Z,948.46
2022-11-23T10:05:30.670Z,948.44
2022-11-23T10:06:30.725Z,948.41
2022-11-23T10:07:31.006Z,948.39
2022-11-23T10:08:30.702Z,948.4
2022-11-23T10:09:30.733Z,948.38
2022-11-23T10:10:30.652Z,948.37
2022-11-23T10:11:30.732Z,948.32
2022-11-23T10:12:32.735Z,948.3
2022-11-23T10:13:30.659Z,948.33
2022-11-23T10:14:30.832Z,948.32
2022-11-23T10:15:30.710Z,948.3
2022-11-23T10:16:30.800Z,948.28
2022-11-23T10:17:30.750Z,948.27
2022-11-23T10:18:30.824Z,948.25
2022-11-23T10:19:30.750Z,948.27
2022-11-23T10:20:30.830Z,948.23
2022-11-23T10:21:30.703Z,948.22
2022-11-23T10:22:32.217Z,948.24
2022-11-23T10:23:30.904Z,948.26
2022-11-23T10:24:30.923Z,948.23
2022-11-23T10:25:33.574Z,948.24
2022-11-23T10:26:31.100Z,948.22
2022-11-23T10:27:30.792Z,948.23
2022-11-23T10:28:31.047Z,948.22
2022-11-23T10:29:30.860Z,948.23
2022-11-23T10:30:30.698Z,948.24
2022-11-23T10:32:30.803Z,948.26
2022-11-23T10:34:31.000Z,948.24
2022-11-23T10:37:30.902Z,948.25
2022-11-23T10:38:30.904Z,948.22
2022-11-23T10:40:30.771Z,948.23
2022-11-23T10:41:30.907Z,948.22
2022-11-23T10:42:30.761Z,948.2
2022-11-23T10:43:30.694Z,948.19
2022-11-23T10:44:31.185Z,948.16
2022-11-23T10:45:30.768Z,948.19
2022-11-23T10:47:30.733Z,948.14
2022-11-23T10:48:31.001Z,948.19
2022-11-23T10:49:30.722Z,948.18
2022-11-23T10:50:30.857Z,948.22
2022-11-23T10:51:30.949Z,948.2
2022-11-23T10:52:30.779Z,948.19
2022-11-23T10:54:32.187Z,948.16
2022-11-23T10:55:30.926Z,948.17
2022-11-23T10:58:30.863Z,948.16
2022-11-23T10:59:30.823Z,948.17
2022-11-23T11:00:31.591Z,948.2
2022-11-23T11:01:30.909Z,948.15
2022-11-23T11:02:30.790Z,948.16
2022-11-23T11:03:30.974Z,948.11
2022-11-23T11:04:31.063Z,948.09
2022-11-23T11:06:06.800Z,948.08
2022-11-23T11:06:30.938Z,948.1
2022-11-23T11:07:30.932Z,948.11
2022-11-23T11:08:30.896Z,948.13
2022-11-23T11:09:30.945Z,948.11
2022-11-23T11:10:30.826Z,948.12
2022-11-23T11:11:30.794Z,948.11
2022-11-23T11:12:30.848Z,948.1
2022-11-23T11:13:30.904Z,948.05
2022-11-23T11:14:37.800Z,948.04
2022-11-23T11:15:30.968Z,948.01
2022-11-23T11:16:30.858Z,947.98
2022-11-23T11:17:30.858Z,947.96
2022-11-23T11:18:31.036Z,947.9
2022-11-23T11:19:30.904Z,947.92
2022-11-23T11:20:30.861Z,947.91
2022-11-23T11:21:30.883Z,947.88
2022-11-23T11:22:30.837Z,947.84
2022-11-23T11:23:30.911Z,947.77
2022-11-23T11:24:31.162Z,947.74
2022-11-23T11:25:30.844Z,947.71
2022-11-23T11:26:30.875Z,947.69
2022-11-23T11:27:30.939Z,947.68
2022-11-23T11:29:36.922Z,947.67
2022-11-23T11:30:30.934Z,947.71
2022-11-23T11:31:30.835Z,947.7
2022-11-23T11:32:30.906Z,947.72
2022-11-23T11:33:36.097Z,947.71
2022-11-23T11:35:31.073Z,947.69
2022-11-23T11:36:30.957Z,947.7
2022-11-23T11:38:30.912Z,947.71
2022-11-23T11:39:30.882Z,947.65
2022-11-23T11:40:30.962Z,947.66
2022-11-23T11:41:32.011Z,947.64
2022-11-23T11:42:31.055Z,947.65
2022-11-23T11:43:37.747Z,947.63
2022-11-23T11:44:31.316Z,947.58
2022-11-23T11:45:30.958Z,947.57
2022-11-23T11:49:30.974Z,947.55
2022-11-23T11:50:32.002Z,947.52
2022-11-23T11:52:31.003Z,947.51
2022-11-23T11:54:31.583Z,947.43
2022-11-23T11:55:30.952Z,947.46
2022-11-23T11:56:31.055Z,947.47
2022-11-23T11:57:30.993Z,947.43
2022-11-23T11:58:31.052Z,947.4
2022-11-23T11:59:31.218Z,947.42
2022-11-23T12:00:30.979Z,947.43
2022-11-23T12:02:31.201Z,947.4
2022-11-23T12:03:31.027Z,947.38
2022-11-23T12:04:31.179Z,947.35
2022-11-23T12:05:31.083Z,947.34
2022-11-23T12:06:30.930Z,947.33
2022-11-23T12:07:30.979Z,947.3
2022-11-23T12:09:31.452Z,947.26
2022-11-23T12:10:30.953Z,947.3
2022-11-23T12:11:31.112Z,947.31
2022-11-23T12:12:31.099Z,947.29
2022-11-23T12:13:31.034Z,947.36
2022-11-23T12:15:48.685Z,947.38
2022-11-23T12:16:30.998Z,947.35
2022-11-23T12:17:33.341Z,947.38
2022-11-23T12:18:31.285Z,947.36
2022-11-23T12:19:31.104Z,947.41
2022-11-23T12:20:31.103Z,947.38
2022-11-23T12:21:31.009Z,947.37
2022-11-23T12:23:31.091Z,947.36
2022-11-23T12:24:31.206Z,947.35
2022-11-23T12:25:31.160Z,947.34
2022-11-23T12:26:31.011Z,947.38
2022-11-23T12:27:32.368Z,947.37
2022-11-23T12:28:31.073Z,947.36
2022-11-23T12:29:31.423Z,947.31
2022-11-23T12:30:31.146Z,947.29
2022-11-23T12:31:31.137Z,947.3
2022-11-23T12:34:31.300Z,947.38
2022-11-23T12:35:31.110Z,947.39
2022-11-23T12:37:31.099Z,947.32
2022-11-23T12:39:31.162Z,947.34
2022-11-23T12:41:31.104Z,947.36
2022-11-23T12:44:31.378Z,947.3
2022-11-23T12:45:31.212Z,947.31
2022-11-23T12:46:31.174Z,947.32
2022-11-23T12:47:31.364Z,947.3
2022-11-23T12:49:34.811Z,947.28
2022-11-23T12:50:31.089Z,947.25
2022-11-23T12:52:31.200Z,947.26
2022-11-23T12:53:31.091Z,947.27
2022-11-23T12:54:31.268Z,947.24
2022-11-23T12:55:31.180Z,947.26
2022-11-23T12:59:31.179Z,947.21
2022-11-23T13:00:31.179Z,947.14
2022-11-23T13:02:31.218Z,947.13
2022-11-23T13:03:31.256Z,947.15
2022-11-23T13:06:31.245Z,947.12
2022-11-23T13:07:37.446Z,947.13
2022-11-23T13:10:31.180Z,947.12
2022-11-23T13:11:31.281Z,947.05
2022-11-23T13:12:31.248Z,947.04
2022-11-23T13:13:31.330Z,947.01
2022-11-23T13:14:31.332Z,946.97
2022-11-23T13:15:31.266Z,946.95
2022-11-23T13:16:31.311Z,946.91
2022-11-23T13:17:31.269Z,946.93
2022-11-23T13:18:31.241Z,946.88
2022-11-23T13:19:31.146Z,946.9
2022-11-23T13:20:31.272Z,946.85
2022-11-23T13:21:31.201Z,946.86
2022-11-23T13:23:31.220Z,946.82
2022-11-23T13:24:31.462Z,946.84
2022-11-23T13:25:31.216Z,946.85
2022-11-23T13:26:31.303Z,946.89
2022-11-23T13:27:31.996Z,946.87
2022-11-23T13:28:31.259Z,946.86
2022-11-23T13:29:31.267Z,946.88
2022-11-23T13:30:45.904Z,946.87
2022-11-23T13:31:31.526Z,946.9
2022-11-23T13:32:31.368Z,946.95
2022-11-23T13:33:35.876Z,946.94
2022-11-23T13:35:31.259Z,946.91
2022-11-23T13:36:56.847Z,946.89
2022-11-23T13:37:31.181Z,946.88
2022-11-23T13:38:31.487Z,946.87
2022-11-23T13:39:31.600Z,946.84
2022-11-23T13:41:33.448Z,946.77
2022-11-23T13:43:31.183Z,946.75
2022-11-23T13:44:31.587Z,946.76
2022-11-23T13:45:31.258Z,946.77
2022-11-23T13:46:31.282Z,946.79
2022-11-23T13:47:31.330Z,946.77
2022-11-23T13:48:56.558Z,946.74
2022-11-23T13:49:31.165Z,946.76
2022-11-23T13:50:31.356Z,946.72
2022-11-23T13:51:31.184Z,946.73
2022-11-23T13:52:31.253Z,946.72
2022-11-23T13:53:31.314Z,946.73
2022-11-23T13:54:31.652Z,946.72
2022-11-23T13:55:32.332Z,946.71
2022-11-23T13:56:31.313Z,946.67
2022-11-23T13:57:31.384Z,946.71
2022-11-23T13:59:31.305Z,946.69
2022-11-23T14:00:31.436Z,946.72
2022-11-23T14:01:31.247Z,946.71
2022-11-23T14:02:31.468Z,946.7
2022-11-23T14:03:31.246Z,946.72
2022-11-23T14:04:31.599Z,946.71
2022-11-23T14:05:31.297Z,946.74
2022-11-23T14:06:31.252Z,946.71
2022-11-23T14:07:31.502Z,946.75
2022-11-23T14:08:31.393Z,946.74
2022-11-23T14:09:31.478Z,946.77
2022-11-23T14:10:31.390Z,946.74
2022-11-23T14:11:31.248Z,946.77
2022-11-23T14:12:31.409Z,946.76
2022-11-23T14:13:31.320Z,946.74
2022-11-23T14:15:31.280Z,946.69
2022-11-23T14:16:31.444Z,946.67
2022-11-23T14:17:31.306Z,946.66
2022-11-23T14:18:31.448Z,946.65
2022-11-23T14:19:31.487Z,946.64
2022-11-23T14:20:32.478Z,946.63
2022-11-23T14:21:31.451Z,946.62
2022-11-23T14:23:31.421Z,946.6
2022-11-23T14:24:31.740Z,946.63
2022-11-23T14:25:31.398Z,946.67
2022-11-23T14:26:31.272Z,946.61
2022-11-23T14:27:46.570Z,946.65
2022-11-23T14:28:31.630Z,946.69
2022-11-23T14:29:31.417Z,946.68
2022-11-23T14:31:31.472Z,946.69
2022-11-23T14:32:31.330Z,946.72
2022-11-23T14:33:31.490Z,946.64
2022-11-23T14:34:31.878Z,946.63
2022-11-23T14:35:31.364Z,946.67
2022-11-23T14:36:31.345Z,946.64
2022-11-23T14:37:31.410Z,946.6
2022-11-23T14:38:33.515Z,946.59
2022-11-23T14:39:31.447Z,946.57
2022-11-23T14:40:31.445Z,946.58
2022-11-23T14:41:32.782Z,946.61
2022-11-23T14:42:31.457Z,946.58
2022-11-23T14:43:31.464Z,946.61
2022-11-23T14:44:35.670Z,946.59
2022-11-23T14:45:31.550Z,946.62
2022-11-23T14:46:31.493Z,946.61
2022-11-23T14:47:32.705Z,946.64
2022-11-23T14:48:31.523Z,946.59
2022-11-23T14:49:31.424Z,946.58
2022-11-23T14:50:31.465Z,946.55
2022-11-23T14:51:31.509Z,946.58
2022-11-23T14:52:31.427Z,946.55
2022-11-23T14:54:31.570Z,946.56
2022-11-23T14:55:31.332Z,946.53
2022-11-23T14:56:31.376Z,946.52
2022-11-23T14:57:31.520Z,946.47
2022-11-23T14:58:31.439Z,946.45
2022-11-23T14:59:31.443Z,946.43
2022-11-23T15:00:31.468Z,946.44
2022-11-23T15:01:31.389Z,946.45
2022-11-23T15:02:32.751Z,946.46
2022-11-23T15:03:49.810Z,946.52
2022-11-23T15:04:32.032Z,946.49